Time;durP1;ratioP1;P1;durP2;ratioP2;P2;SDS_P1;SDS_P2;PMS_P1;PMS_P2;Temp;Humidity;BMP_temperature;BMP_pressure;BME280_temperature;BME280_humidity;BME280_pressure;Samples;Min_cycle;Max_cycle;Signal;HPM_P1;HPM_P2
2021/07/01 00:00:53;;;;;;;7.12;6.10;;;;;;;22.39;100.00;99997.34;1693176;83;20988;-45
2021/07/01 00:03:19;;;;;;;7.20;6.05;;;;;;;22.39;100.00;99998.70;1690384;84;21027;-44
2021/07/01 00:05:46;;;;;;;10.50;7.08;;;;;;;22.39;100.00;100000.58;1686980;83;20983;-43
2021/07/01 00:08:13;;;;;;;8.23;6.97;;;;;;;22.35;100.00;99991.08;1689354;84;20988;-44
2021/07/01 00:10:39;;;;;;;8.50;5.97;;;;;;;22.31;100.00;99988.41;1686386;83;20972;-43
2021/07/01 00:13:06;;;;;;;6.15;5.55;;;;;;;22.26;100.00;99987.58;1693704;83;21031;-45
2021/07/01 00:15:33;;;;;;;9.13;7.10;;;;;;;;;;1686112;83;21527;-44
2021/07/01 00:18:00;;;;;;;9.98;6.28;;;;;;;22.18;100.00;99987.59;1686396;84;21043;-44
2021/07/01 00:20:27;;;;;;;7.97;7.10;;;;;;;22.19;100.00;99985.20;1662549;84;21477;-44
2021/07/01 00:22:53;;;;;;;7.42;6.70;;;;;;;22.20;100.00;99984.20;1727669;81;20972;-44
2021/07/01 00:25:20;;;;;;;8.33;6.50;;;;;;;22.18;100.00;99978.93;1730490;81;20949;-44
2021/07/01 00:27:47;;;;;;;6.20;5.62;;;;;;;22.17;100.00;99976.38;1730825;81;20949;-45
2021/07/01 00:30:15;;;;;;;7.08;6.45;;;;;;;22.16;100.00;99962.48;1728534;82;20944;-44
2021/07/01 00:32:42;;;;;;;8.15;6.20;;;;;;;22.17;100.00;99955.50;1730257;81;21397;-44
2021/07/01 00:35:10;;;;;;;10.10;6.37;;;;;;;22.16;100.00;99955.18;1730736;82;20984;-44
2021/07/01 00:37:37;;;;;;;7.28;6.47;;;;;;;22.17;100.00;99957.38;1725308;81;21016;-45
2021/07/01 00:40:05;;;;;;;6.85;6.20;;;;;;;22.17;100.00;99960.93;1723714;82;20952;-44
2021/07/01 00:42:32;;;;;;;6.28;5.67;;;;;;;22.15;100.00;99952.14;1729370;82;20988;-46
2021/07/01 00:44:58;;;;;;;8.73;6.20;;;;;;;22.16;100.00;99954.34;1720779;82;20905;-44
2021/07/01 00:47:25;;;;;;;6.65;5.95;;;;;;;22.15;100.00;99946.72;1726962;82;21004;-43
2021/07/01 00:49:53;;;;;;;9.95;6.22;;;;;;;22.14;100.00;99940.94;1727237;81;21011;-44
2021/07/01 00:52:20;;;;;;;7.00;6.00;;;;;;;22.14;100.00;99932.79;1734368;81;20953;-44
2021/07/01 00:54:46;;;;;;;7.30;6.28;;;;;;;22.13;100.00;99931.11;1725302;81;20959;-45
2021/07/01 00:57:13;;;;;;;6.90;5.85;;;;;;;22.10;100.00;99926.05;1724131;81;20925;-44
2021/07/01 00:59:41;;;;;;;7.15;6.47;;;;;;;22.10;100.00;99925.17;1730401;81;21522;-46
2021/07/01 01:02:07;;;;;;;6.53;5.92;;;;;;;22.07;100.00;99926.38;1707879;82;20948;-46
2021/07/01 01:04:34;;;;;;;7.30;5.85;;;;;;;22.07;100.00;99931.80;1731741;81;21510;-43
2021/07/01 01:07:04;;;;;;;6.22;5.58;;;;;;;22.05;100.00;99943.38;1732080;82;20984;-44
2021/07/01 01:09:31;;;;;;;;;;;;;;;22.03;100.00;99948.97;1733428;81;20987;-44
2021/07/01 01:11:58;;;;;;;9.45;7.00;;;;;;;22.04;100.00;99951.16;1734126;81;20113;-46
2021/07/01 01:14:24;;;;;;;7.95;7.22;;;;;;;22.02;100.00;99951.36;1732572;81;20988;-46
2021/07/01 01:17:05;;;;;;;8.00;7.20;;;;;;;22.03;100.00;99953.55;1730207;81;21304;-45
2021/07/01 01:19:32;;;;;;;7.58;6.87;;;;;;;22.03;100.00;99946.77;1722035;81;20969;-45
2021/07/01 01:21:59;;;;;;;8.98;8.08;;;;;;;22.02;100.00;99940.50;1725414;82;21526;-44
2021/07/01 01:24:26;;;;;;;9.10;7.90;;;;;;;22.01;100.00;99940.15;1723452;81;20964;-44
2021/07/01 01:26:53;;;;;;;8.35;7.55;;;;;;;22.01;100.00;99928.45;1709794;82;20925;-44
2021/07/01 01:29:21;;;;;;;10.45;9.00;;;;;;;22.00;100.00;99918.63;1731648;81;20937;-43
2021/07/01 01:32:07;;;;;;;9.95;7.97;;;;;;;21.99;100.00;99897.41;1731881;81;21390;-44
2021/07/01 01:34:34;;;;;;;7.75;7.05;;;;;;;21.98;100.00;99890.30;1732135;81;20929;-44
2021/07/01 01:37:02;;;;;;;7.47;6.67;;;;;;;21.95;100.00;99887.11;1735497;82;21440;-46
2021/07/01 01:39:29;;;;;;;9.95;6.55;;;;;;;21.92;100.00;99886.08;1695831;82;20944;-42
2021/07/01 01:42:03;;;;;;;7.22;6.60;;;;;;;21.90;100.00;99875.91;1729789;81;20988;-42
2021/07/01 01:44:32;;;;;;;8.35;7.00;;;;;;;21.85;100.00;99867.45;1731254;81;20973;-44
2021/07/01 01:46:58;;;;;;;8.23;7.42;;;;;;;21.81;100.00;99858.84;1727030;81;20960;-41
2021/07/01 01:49:26;;;;;;;8.78;7.87;;;;;;;21.78;100.00;99851.06;1709410;82;20960;-45
2021/07/01 01:51:53;;;;;;;7.80;7.10;;;;;;;21.75;100.00;99842.77;1730711;81;20980;-45
2021/07/01 01:54:20;;;;;;;9.18;8.28;;;;;;;21.71;100.00;99828.38;1730936;82;20965;-45
2021/07/01 01:56:48;;;;;;;8.15;7.45;;;;;;;21.67;100.00;99825.19;1735262;82;21428;-45
2021/07/01 01:59:17;;;;;;;8.40;7.17;;;;;;;21.65;100.00;99821.80;1723207;81;20968;-45
2021/07/01 02:02:03;;;;;;;13.98;7.53;;;;;;;21.63;100.00;99818.93;1732890;80;20988;-45
2021/07/01 02:04:32;;;;;;;7.92;7.22;;;;;;;21.60;100.00;99811.99;1735072;80;20972;-46
2021/07/01 02:06:58;;;;;;;8.40;7.12;;;;;;;21.59;100.00;99811.13;1734171;81;20995;-45
2021/07/01 02:09:28;;;;;;;13.20;7.73;;;;;;;21.61;100.00;99810.95;1735111;81;21922;-42
2021/07/01 02:11:56;;;;;;;10.10;7.80;;;;;;;21.64;100.00;99820.09;1743771;80;21172;-45
2021/07/01 02:14:23;;;;;;;7.12;6.40;;;;;;;21.67;100.00;99827.89;1735326;82;20992;-43
2021/07/01 02:16:59;;;;;;;8.48;7.62;;;;;;;21.69;100.00;99827.70;1721115;82;20948;-45
2021/07/01 02:19:26;;;;;;;10.93;6.80;;;;;;;21.71;100.00;99831.92;1731161;81;20948;-47
2021/07/01 02:21:53;;;;;;;7.10;6.40;;;;;;;21.71;100.00;99829.22;1709068;82;20990;-42
2021/07/01 02:24:20;;;;;;;8.48;7.12;;;;;;;21.71;100.00;99829.73;1703806;82;20984;-44
2021/07/01 02:26:47;;;;;;;8.00;7.20;;;;;;;21.72;100.00;99828.70;1732692;82;20972;-47
2021/07/01 02:29:14;;;;;;;7.17;6.55;;;;;;;21.72;100.00;99832.28;1740237;82;20968;-45
2021/07/01 02:31:53;;;;;;;7.00;6.17;;;;;;;21.72;100.00;99839.06;1677233;84;20982;-42
2021/07/01 02:34:21;;;;;;;7.05;6.08;;;;;;;21.75;100.00;99840.05;1655836;85;20951;-42
2021/07/01 02:36:58;;;;;;;7.60;6.90;;;;;;;21.76;100.00;99837.66;1667968;84;20971;-45
2021/07/01 02:39:33;;;;;;;7.22;6.53;;;;;;;21.76;100.00;99843.09;1666807;86;20987;-45
2021/07/01 02:42:02;;;;;;;7.30;6.12;;;;;;;21.76;100.00;99848.52;1668697;86;20969;-43
2021/07/01 02:44:28;;;;;;;7.00;6.30;;;;;;;21.79;100.00;99855.45;1669375;86;21459;-44
2021/07/01 02:47:15;;;;;;;7.15;6.45;;;;;;;21.81;100.00;99846.11;1634861;87;20951;-44
2021/07/01 02:49:43;;;;;;;7.47;6.87;;;;;;;21.85;100.00;99837.12;1635407;87;20959;-43
2021/07/01 02:52:12;;;;;;;6.30;5.70;;;;;;;21.87;100.00;99840.48;1633994;87;20991;-42
2021/07/01 02:54:38;;;;;;;6.85;6.08;;;;;;;21.90;100.00;99848.78;1628414;87;21522;-43
2021/07/01 02:57:20;;;;;;;7.33;6.65;;;;;;;21.90;100.00;99862.34;1613758;87;20990;-44
2021/07/01 03:00:00;;;;;;;7.35;6.65;;;;;;;21.90;100.00;99867.77;1629274;86;21054;-42
2021/07/01 03:02:30;;;;;;;8.43;7.62;;;;;;;21.91;100.00;99868.12;1628304;86;21585;-43
2021/07/01 03:05:13;;;;;;;8.10;7.30;;;;;;;21.91;100.00;99878.98;1624087;88;21007;-43
2021/07/01 03:07:41;;;;;;;10.15;7.25;;;;;;;21.91;100.00;99877.63;1620721;87;21023;-44
2021/07/01 03:10:09;;;;;;;9.28;6.42;;;;;;;21.92;100.00;99882.85;1601573;89;20992;-44
2021/07/01 03:12:38;;;;;;;7.33;6.67;;;;;;;21.95;100.00;99883.88;1601293;86;21539;-44
2021/07/01 03:15:05;;;;;;;6.83;6.22;;;;;;;21.98;100.00;99890.30;1646197;85;20983;-44
2021/07/01 03:17:33;;;;;;;11.65;7.17;;;;;;;22.01;100.00;99891.81;1660627;82;21636;-44
2021/07/01 03:20:00;;;;;;;7.12;6.53;;;;;;;22.04;100.00;99891.45;1734339;81;20972;-43
2021/07/01 03:22:28;;;;;;;7.60;6.80;;;;;;;22.07;100.00;99895.16;1735976;81;20940;-41
2021/07/01 03:24:56;;;;;;;7.55;6.75;;;;;;;22.09;100.00;99894.47;1739120;80;20960;-43
2021/07/01 03:27:23;;;;;;;8.28;7.58;;;;;;;22.13;100.00;99900.41;1736177;81;20925;-40
2021/07/01 03:29:49;;;;;;;7.90;7.15;;;;;;;22.15;100.00;99920.05;1740696;80;20972;-41
2021/07/01 03:32:17;;;;;;;8.35;7.58;;;;;;;22.17;100.00;99947.87;1740837;82;20963;-42
2021/07/01 03:34:44;;;;;;;10.58;9.53;;;;;;;22.18;100.00;99965.36;1734724;80;20944;-41
2021/07/01 03:37:13;;;;;;;9.70;8.80;;;;;;;22.17;100.00;99955.50;1741059;80;21215;-42
2021/07/01 03:39:59;;;;;;;9.90;8.88;;;;;;;22.16;100.00;99944.32;1727186;82;21019;-44
2021/07/01 03:42:27;;;;;;;11.55;10.35;;;;;;;22.16;100.00;99938.05;1737702;82;20940;-43
2021/07/01 03:44:56;;;;;;;9.68;8.63;;;;;;;22.16;100.00;99947.03;1734487;80;21466;-43
2021/07/01 03:47:23;;;;;;;9.20;8.20;;;;;;;22.16;100.00;99957.89;1735848;81;21466;-40
2021/07/01 03:49:49;;;;;;;11.40;9.48;;;;;;;22.17;100.00;99956.02;1734764;81;20976;-43
2021/07/01 03:52:34;;;;;;;8.83;8.03;;;;;;;22.17;100.00;99949.23;1737922;82;21027;-46
2021/07/01 03:55:02;;;;;;;9.33;8.30;;;;;;;22.15;100.00;99948.08;1741603;80;20901;-46
2021/07/01 03:57:28;;;;;;;10.38;8.75;;;;;;;22.16;100.00;99953.82;1733767;80;21047;-43
2021/07/01 03:59:55;;;;;;;9.00;8.20;;;;;;;22.17;100.00;99952.78;1739272;81;21019;-45
2021/07/01 04:02:40;;;;;;;11.73;8.93;;;;;;;22.18;100.00;99946.88;1737714;82;21353;-43
2021/07/01 04:05:11;;;;;;;9.18;8.38;;;;;;;22.17;100.00;99956.02;1741881;81;20947;-43
2021/07/01 04:07:38;;;;;;;8.68;7.87;;;;;;;22.19;100.00;99963.48;1738038;82;20944;-44
2021/07/01 04:10:12;;;;;;;8.88;8.08;;;;;;;22.20;100.00;99962.48;1736799;82;20901;-46
2021/07/01 04:12:36;;;;;;;7.65;6.95;;;;;;;22.23;100.00;99962.98;1648994;85;21000;-45
2021/07/01 04:15:11;;;;;;;9.00;8.10;;;;;;;22.26;100.00;99964.50;1560547;90;20985;-43
2021/07/01 04:17:41;;;;;;;8.85;8.03;;;;;;;22.28;100.00;99964.33;1569195;90;20994;-43
2021/07/01 04:20:10;;;;;;;8.15;7.45;;;;;;;22.29;100.00;99964.66;1542633;91;21031;-44
2021/07/01 04:22:55;;;;;;;8.18;7.28;;;;;;;22.32;100.00;99961.58;1551079;91;21114;-43
2021/07/01 04:25:39;;;;;;;7.22;6.60;;;;;;;22.35;100.00;99968.88;1545459;91;21034;-46
2021/07/01 04:28:06;;;;;;;10.70;6.85;;;;;;;22.38;100.00;99959.52;1530597;92;21052;-45
2021/07/01 04:30:32;;;;;;;7.47;6.55;;;;;;;22.40;100.00;99963.75;1550110;91;21018;-44
2021/07/01 04:33:01;;;;;;;7.78;7.03;;;;;;;22.43;100.00;99963.91;1533008;92;21027;-46
2021/07/01 04:35:28;;;;;;;7.70;6.80;;;;;;;22.45;100.00;99964.55;1533298;92;20996;-46
2021/07/01 04:37:55;;;;;;;7.08;6.03;;;;;;;22.49;100.00;99972.68;1533626;92;22152;-47
2021/07/01 04:40:22;;;;;;;8.55;6.90;;;;;;;22.51;100.00;99978.78;1522990;93;21012;-43
2021/07/01 04:42:48;;;;;;;7.83;6.17;;;;;;;22.53;100.00;99976.74;1541071;92;21096;-43
2021/07/01 04:45:15;;;;;;;7.53;6.92;;;;;;;22.56;100.00;99982.33;1535556;92;21084;-43
2021/07/01 04:47:41;;;;;;;9.48;7.00;;;;;;;22.58;100.00;99989.27;1521550;93;21035;-41
2021/07/01 04:50:11;;;;;;;8.65;6.00;;;;;;;22.60;100.00;99989.95;1562487;91;21018;-44
2021/07/01 04:52:40;;;;;;;7.12;6.53;;;;;;;22.63;100.00;99995.02;1614383;88;20997;-44
2021/07/01 04:55:21;;;;;;;7.25;6.55;;;;;;;22.64;100.00;100004.84;1635285;87;21798;-46
2021/07/01 04:58:06;;;;;;;7.53;6.75;;;;;;;22.66;100.00;100004.67;1632039;87;21017;-43
2021/07/01 05:00:35;;;;;;;6.62;5.53;;;;;;;22.69;100.00;100001.07;1629711;86;21909;-43
2021/07/01 05:03:20;;;;;;;6.42;5.80;;;;;;;22.72;100.00;100013.97;1615282;87;21043;-43
2021/07/01 05:05:47;;;;;;;6.62;5.87;;;;;;;22.74;100.00;100026.87;1611857;87;20966;-43
2021/07/01 05:08:16;;;;;;;6.42;5.50;;;;;;;22.75;100.00;100025.83;1615480;87;21065;-46
2021/07/01 05:10:43;;;;;;;5.92;5.35;;;;;;;22.78;100.00;100025.47;1662147;82;20952;-45
2021/07/01 05:13:12;;;;;;;7.37;6.33;;;;;;;22.79;100.00;100023.94;1743055;80;20941;-44
2021/07/01 05:15:39;;;;;;;6.60;6.00;;;;;;;22.81;100.00;100027.84;1734171;82;21523;-44
2021/07/01 05:18:06;;;;;;;6.58;5.87;;;;;;;22.84;100.00;100037.83;1733664;80;21420;-46
2021/07/01 05:20:34;;;;;;;7.30;5.97;;;;;;;22.85;100.00;100035.44;1711161;82;20948;-42
2021/07/01 05:23:19;;;;;;;7.25;5.97;;;;;;;22.86;100.00;100039.86;1734090;80;20928;-41
2021/07/01 05:26:04;;;;;;;8.18;7.00;;;;;;;22.88;100.00;100036.45;1737184;81;20928;-45
2021/07/01 05:28:49;;;;;;;5.92;5.35;;;;;;;22.89;100.00;100027.78;1734793;81;21455;-44
2021/07/01 05:31:21;;;;;;;6.17;5.45;;;;;;;22.90;100.00;100033.55;1666127;84;21967;-44
2021/07/01 05:33:57;;;;;;;6.47;5.67;;;;;;;22.94;100.00;100034.05;1665823;85;21003;-42
2021/07/01 05:36:24;;;;;;;5.90;5.12;;;;;;;22.95;100.00;100029.77;1663711;84;20978;-44
2021/07/01 05:38:52;;;;;;;7.80;5.15;;;;;;;22.96;100.00;100023.84;1645641;84;21036;-43
2021/07/01 05:41:21;;;;;;;7.15;6.05;;;;;;;22.97;100.00;100033.19;1664897;84;20984;-43
2021/07/01 05:43:48;;;;;;;6.90;6.17;;;;;;;22.99;100.00;100031.66;1669225;85;20976;-43
2021/07/01 05:46:16;;;;;;;8.55;6.42;;;;;;;23.02;100.00;100024.50;1666395;84;21031;-43
2021/07/01 05:48:43;;;;;;;6.53;5.78;;;;;;;23.03;100.00;100030.25;1667037;84;20983;-44
2021/07/01 05:51:12;;;;;;;6.58;5.97;;;;;;;23.03;100.00;100028.41;1668417;84;21506;-43
2021/07/01 05:56:06;;;;;;;6.78;5.85;;;;;;;23.08;100.00;100026.47;1667370;84;20979;-41
2021/07/01 05:58:33;;;;;;;8.03;6.28;;;;;;;23.10;100.00;100025.78;1669659;85;21003;-40
2021/07/01 06:01:00;;;;;;;7.42;6.78;;;;;;;23.14;100.00;100020.84;1667311;84;20983;-46
2021/07/01 06:03:26;;;;;;;7.83;6.72;;;;;;;23.17;100.00;100027.27;1681245;84;21049;-43
2021/07/01 06:05:57;;;;;;;9.33;6.03;;;;;;;23.19;100.00;100020.63;1687748;85;21560;-42
2021/07/01 06:08:29;;;;;;;8.03;6.80;;;;;;;23.25;100.00;100038.08;1701751;80;20975;-44
2021/07/01 06:10:58;;;;;;;7.65;6.92;;;;;;;23.27;100.00;100029.23;1740241;80;21498;-43
2021/07/01 06:13:24;;;;;;;6.85;6.08;;;;;;;23.30;100.00;100032.94;1751748;81;20967;-46
2021/07/01 06:15:52;;;;;;;7.75;6.10;;;;;;;23.33;100.00;100027.13;1734055;81;21030;-45
2021/07/01 06:18:21;;;;;;;11.25;10.25;;;;;;;23.37;100.00;100027.62;1745038;80;21415;-48
2021/07/01 06:20:49;;;;;;;13.55;12.25;;;;;;;23.40;100.00;100017.20;1741266;81;20975;-46
2021/07/01 06:23:17;;;;;;;8.03;7.22;;;;;;;23.44;100.00;100019.89;1751330;80;20979;-45
2021/07/01 06:25:47;;;;;;;11.70;7.08;;;;;;;23.47;100.00;100015.44;1741891;81;20996;-43
2021/07/01 06:28:14;;;;;;;7.80;6.97;;;;;;;23.52;100.00;100018.97;1741545;80;21306;-47
2021/07/01 06:30:45;;;;;;;7.35;6.58;;;;;;;23.56;100.00;100014.83;1745196;80;20967;-44
2021/07/01 06:33:13;;;;;;;7.87;7.10;;;;;;;23.59;100.00;100015.00;1748458;81;20936;-41
2021/07/01 06:35:46;;;;;;;7.33;6.62;;;;;;;23.60;100.00;100018.05;1741532;80;21007;-43
2021/07/01 06:38:23;;;;;;;9.70;8.68;;;;;;;23.62;100.00;100016.83;1689244;83;21051;-44
2021/07/01 06:41:17;;;;;;;8.00;7.20;;;;;;;23.66;100.00;100022.73;1710764;82;21056;-44
2021/07/01 06:44:03;;;;;;;6.78;6.08;;;;;;;23.68;100.00;100020.67;1705230;83;20975;-43
2021/07/01 06:46:48;;;;;;;7.25;6.47;;;;;;;23.69;100.00;100012.34;1687558;82;20959;-43
2021/07/01 06:49:33;;;;;;;7.25;5.92;;;;;;;23.70;100.00;100012.66;1711068;82;20979;-43
2021/07/01 06:52:18;;;;;;;7.53;6.62;;;;;;;23.73;100.00;100023.19;1713117;82;20963;-44
2021/07/01 06:55:05;;;;;;;8.93;6.90;;;;;;;23.76;100.00;100019.25;1711918;82;21396;-44
2021/07/01 06:57:43;;;;;;;7.75;6.35;;;;;;;23.79;100.00;100024.84;1705515;82;21493;-43
2021/07/01 07:00:14;;;;;;;7.92;6.22;;;;;;;23.80;100.00;100015.14;1705286;83;20975;-44
2021/07/01 07:02:41;;;;;;;6.20;5.60;;;;;;;23.83;100.00;100018.00;1710070;82;21020;-49
2021/07/01 07:05:13;;;;;;;6.70;5.95;;;;;;;23.86;100.00;100021.18;1709474;83;21023;-44
2021/07/01 07:07:40;;;;;;;6.17;5.58;;;;;;;23.88;100.00;100018.28;1708510;82;20988;-43
2021/07/01 07:10:08;;;;;;;7.85;5.83;;;;;;;23.90;100.00;100014.34;1701952;82;21533;-47
2021/07/01 07:12:43;;;;;;;7.22;6.10;;;;;;;23.92;100.00;100000.03;1704737;82;21514;-50
2021/07/01 07:15:07;;;;;;;;;;;;;;;23.96;100.00;100006.80;1705897;83;21011;-45
2021/07/01 07:17:38;;;;;;;10.78;6.83;;;;;;;23.98;100.00;100001.99;1698757;82;20123;-44
2021/07/01 07:20:08;;;;;;;7.08;5.53;;;;;;;24.02;100.00;99998.91;1702771;82;21501;-46
2021/07/01 07:22:42;;;;;;;6.62;5.92;;;;;;;24.04;100.00;99991.38;1723060;82;20913;-45
2021/07/01 07:25:11;;;;;;;7.45;6.72;;;;;;;24.06;100.00;99991.52;1735263;80;20988;-47
2021/07/01 07:27:39;;;;;;;14.40;12.90;;;;;;;24.09;100.00;99989.80;1735311;80;20948;-44
2021/07/01 07:30:06;;;;;;;10.28;9.28;;;;;;;24.13;100.00;99986.17;1727645;82;21431;-48
2021/07/01 07:32:33;;;;;;;7.37;6.50;;;;;;;24.16;100.00;99979.81;1737052;80;20944;-45
2021/07/01 07:35:00;;;;;;;7.55;6.37;;;;;;;24.23;100.00;99973.62;1710997;82;20968;-46
2021/07/01 07:37:27;;;;;;;9.28;7.22;;;;;;;24.26;100.00;99975.44;1731162;82;21396;-43
2021/07/01 07:39:54;;;;;;;7.22;6.53;;;;;;;24.31;100.00;99973.50;1736125;80;21012;-41
2021/07/01 07:42:20;;;;;;;7.08;6.37;;;;;;;24.36;100.00;99975.14;1732767;80;20982;-41
2021/07/01 07:44:48;;;;;;;10.15;6.42;;;;;;;24.41;100.00;99970.80;1742041;80;20940;-44
2021/07/01 07:47:15;;;;;;;6.25;5.10;;;;;;;24.48;100.00;99967.35;1735707;82;21396;-46
2021/07/01 07:49:42;;;;;;;7.75;6.87;;;;;;;24.54;100.00;99966.05;1736674;80;20964;-46
2021/07/01 07:52:11;;;;;;;9.63;6.37;;;;;;;24.60;100.00;99962.56;1729239;80;20943;-42
2021/07/01 07:54:50;;;;;;;17.98;16.00;;;;;;;24.66;100.00;99960.09;1724676;82;20972;-43
2021/07/01 07:57:19;;;;;;;11.57;8.60;;;;;;;24.71;100.00;99953.02;1735353;80;20960;-41
2021/07/01 07:59:50;;;;;;;7.55;6.75;;;;;;;24.76;100.00;99950.55;1711043;82;21468;-43
2021/07/01 08:02:47;;;;;;;7.92;5.47;;;;;;;24.81;100.00;99946.72;1731366;82;21024;-42
2021/07/01 08:05:24;;;;;;;6.30;5.37;;;;;;;24.87;100.00;99946.98;1728395;80;20984;-44
2021/07/01 08:07:53;;;;;;;8.65;6.58;;;;;;;24.91;100.00;99946.40;1732348;82;20952;-43
2021/07/01 08:10:27;;;;;;;6.25;5.47;;;;;;;24.96;100.00;99945.81;1742373;80;21035;-43
2021/07/01 08:12:57;;;;;;;6.42;5.20;;;;;;;24.98;100.00;99942.38;1735664;80;21490;-43
2021/07/01 08:15:23;;;;;;;6.25;4.58;;;;;;;25.00;100.00;99945.76;1728205;80;20976;-43
2021/07/01 08:17:53;;;;;;;8.30;6.30;;;;;;;25.04;100.00;99953.33;1724779;80;20940;-43
2021/07/01 08:20:20;;;;;;;5.62;5.12;;;;;;;25.08;100.00;99948.34;1726250;82;20963;-41
2021/07/01 08:22:49;;;;;;;6.67;4.60;;;;;;;25.10;100.00;99940.81;1730248;82;20920;-43
2021/07/01 08:25:15;;;;;;;5.67;4.60;;;;;;;25.14;100.00;99943.97;1745442;80;20956;-44
2021/07/01 08:27:43;;;;;;;5.95;4.45;;;;;;;25.18;100.00;99935.77;1733064;82;20960;-42
2021/07/01 08:30:13;;;;;;;8.05;4.85;;;;;;;25.21;100.00;99931.27;1739751;80;21408;-45
2021/07/01 08:32:40;;;;;;;5.92;4.50;;;;;;;25.26;100.00;99934.25;1733616;82;21323;-47
2021/07/01 08:35:13;;;;;;;8.15;7.35;;;;;;;25.29;100.00;99931.64;1741365;80;20924;-44
2021/07/01 08:37:46;;;;;;;6.15;4.70;;;;;;;25.32;100.00;99927.98;1699587;82;20995;-44
2021/07/01 08:40:17;;;;;;;4.70;4.05;;;;;;;25.37;100.00;99920.56;1738023;82;21019;-45
2021/07/01 08:42:43;;;;;;;5.62;4.35;;;;;;;25.41;100.00;99915.05;1733121;80;20967;-44
2021/07/01 08:45:12;;;;;;;4.42;3.65;;;;;;;25.44;100.00;99914.11;1739315;80;20960;-43
2021/07/01 08:47:41;;;;;;;;;;;;;;;25.49;100.00;99918.97;1738252;82;20932;-42
2021/07/01 08:50:16;;;;;;;7.92;4.67;;;;;;;25.54;100.00;99921.94;1733355;82;20130;-45
2021/07/01 08:53:05;;;;;;;8.38;4.35;;;;;;;25.58;100.00;99909.59;1728231;80;20960;-46
2021/07/01 08:55:32;;;;;;;5.17;4.17;;;;;;;25.62;100.00;99917.68;1738116;80;21424;-47
2021/07/01 08:57:59;;;;;;;7.85;4.30;;;;;;;25.69;99.59;99922.66;1738225;80;20972;-44
2021/07/01 09:00:29;;;;;;;6.87;4.08;;;;;;;25.73;100.00;99924.98;1734430;80;21458;-44
2021/07/01 09:03:05;;;;;;;6.33;4.33;;;;;;;25.77;97.97;99920.28;1731655;81;20997;-42
2021/07/01 09:05:34;;;;;;;6.65;4.75;;;;;;;25.83;99.46;99929.55;1735226;81;20949;-41
2021/07/01 09:08:03;;;;;;;5.45;3.92;;;;;;;25.87;94.84;99922.14;1726935;82;20932;-41
2021/07/01 09:10:31;;;;;;;7.58;3.77;;;;;;;25.94;94.47;99925.45;1718071;81;21416;-41
2021/07/01 09:12:59;;;;;;;8.58;4.30;;;;;;;25.98;95.82;99920.75;1730232;80;20988;-41
2021/07/01 09:15:28;;;;;;;5.47;3.62;;;;;;;26.04;97.28;99919.92;1730514;82;20924;-41
2021/07/01 09:17:55;;;;;;;9.78;6.95;;;;;;;26.11;97.80;99911.77;1721864;81;20933;-42
2021/07/01 09:20:27;;;;;;;6.00;5.22;;;;;;;26.17;96.30;99914.19;1714270;81;20965;-42
2021/07/01 09:22:56;;;;;;;9.00;4.20;;;;;;;26.21;95.23;99910.02;1719120;81;20992;-44
2021/07/01 09:25:23;;;;;;;5.65;3.75;;;;;;;26.27;96.70;99914.64;1725740;81;20979;-40
2021/07/01 09:27:52;;;;;;;7.00;3.87;;;;;;;26.31;95.16;99911.30;1722432;82;21007;-43
2021/07/01 09:30:28;;;;;;;5.53;3.27;;;;;;;26.36;91.03;99914.78;1724416;82;20928;-42
2021/07/01 09:32:57;;;;;;;7.83;5.80;;;;;;;26.41;88.95;99908.67;1726096;82;20996;-42
2021/07/01 09:35:27;;;;;;;9.93;7.50;;;;;;;26.46;84.77;99910.27;1730911;81;20968;-42
2021/07/01 09:37:54;;;;;;;8.93;7.85;;;;;;;26.51;84.03;99904.52;1715359;82;21004;-42
2021/07/01 09:40:22;;;;;;;7.40;4.55;;;;;;;26.57;87.21;99906.13;1732650;81;21084;-43
2021/07/01 09:42:53;;;;;;;4.42;3.47;;;;;;;26.61;83.72;99895.95;1723435;81;21527;-45
2021/07/01 09:45:23;;;;;;;4.53;3.30;;;;;;;26.65;84.44;99897.73;1724174;81;21440;-43
2021/07/01 09:48:05;;;;;;;4.62;3.60;;;;;;;26.68;83.86;99894.56;1726045;81;20999;-43
2021/07/01 09:50:31;;;;;;;3.98;3.52;;;;;;;26.71;85.69;99900.98;1724253;81;20980;-43
2021/07/01 09:52:58;;;;;;;4.50;3.50;;;;;;;26.72;86.52;99889.02;1714468;82;21806;-43
2021/07/01 09:55:27;;;;;;;5.28;3.87;;;;;;;26.75;85.69;99892.69;1730687;82;20976;-42
2021/07/01 09:57:56;;;;;;;4.05;3.50;;;;;;;26.77;84.50;99883.75;1728030;82;20972;-41
2021/07/01 10:00:31;;;;;;;6.47;3.50;;;;;;;26.79;83.63;99876.19;1709726;82;20956;-43
2021/07/01 10:03:09;;;;;;;9.00;6.42;;;;;;;26.84;84.13;99877.77;1730960;81;20976;-42
2021/07/01 10:05:37;;;;;;;6.60;4.33;;;;;;;26.88;85.75;99872.70;1726922;82;20977;-45
2021/07/01 10:08:04;;;;;;;4.67;3.22;;;;;;;26.93;82.21;99877.02;1728770;81;20984;-43
2021/07/01 10:10:52;;;;;;;6.35;3.45;;;;;;;26.98;81.57;99877.22;1732411;81;21439;-43
2021/07/01 10:13:20;;;;;;;6.70;3.75;;;;;;;27.02;78.69;99869.45;1729604;81;21005;-43
2021/07/01 10:15:51;;;;;;;6.05;3.95;;;;;;;27.05;78.69;99862.19;1727724;81;20958;-41
2021/07/01 10:18:21;;;;;;;5.85;4.37;;;;;;;27.10;80.35;99861.02;1726575;81;21912;-42
2021/07/01 10:20:51;;;;;;;4.20;3.80;;;;;;;27.15;81.53;99862.59;1732657;81;20937;-42
2021/07/01 10:23:30;;;;;;;6.78;4.10;;;;;;;27.16;79.78;99851.42;1724533;81;21035;-42
2021/07/01 10:26:15;;;;;;;4.70;3.75;;;;;;;27.20;81.50;99850.52;1732497;81;20964;-41
2021/07/01 10:28:45;;;;;;;6.08;4.03;;;;;;;27.23;82.33;99847.87;1726451;81;20949;-42
2021/07/01 10:31:13;;;;;;;5.87;4.58;;;;;;;27.25;80.05;99845.23;1712996;82;21427;-45
2021/07/01 10:33:42;;;;;;;8.00;5.05;;;;;;;27.28;83.09;99846.17;1730138;82;20972;-43
2021/07/01 10:36:20;;;;;;;6.37;3.42;;;;;;;27.32;86.02;99845.23;1726194;82;20981;-44
2021/07/01 10:38:50;;;;;;;12.13;10.82;;;;;;;27.34;82.45;99845.34;1727427;81;20996;-43
2021/07/01 10:41:35;;;;;;;7.65;5.00;;;;;;;27.37;82.46;99839.96;1730617;81;21001;-42
2021/07/01 10:44:02;;;;;;;7.12;4.10;;;;;;;27.39;87.83;99841.93;1725101;82;21007;-41
2021/07/01 10:46:43;;;;;;;6.20;4.20;;;;;;;27.43;91.50;99843.73;1724760;81;21028;-41
2021/07/01 10:49:11;;;;;;;4.53;3.52;;;;;;;27.44;84.75;99836.65;1719214;82;20952;-41
2021/07/01 10:51:40;;;;;;;5.17;3.67;;;;;;;27.49;85.87;99836.01;1725412;81;20976;-42
2021/07/01 10:54:11;;;;;;;4.78;3.40;;;;;;;27.55;86.29;99836.53;1679658;82;20964;-43
2021/07/01 10:56:41;;;;;;;7.80;4.55;;;;;;;27.59;86.65;99837.26;1713618;82;20953;-42
2021/07/01 10:59:08;;;;;;;;;;;;;;;27.63;81.00;99830.81;1717408;81;20936;-42
2021/07/01 11:01:36;;;;;;;3.98;3.30;;;;;;;27.65;78.15;99826.50;1710394;82;20142;-42
2021/07/01 11:04:13;;;;;;;6.42;3.70;;;;;;;27.66;76.33;99827.63;1722186;81;20964;-41
2021/07/01 11:06:42;;;;;;;5.60;3.00;;;;;;;27.68;75.46;99832.91;1728848;81;20956;-42
2021/07/01 11:09:13;;;;;;;4.55;3.05;;;;;;;27.68;73.44;99835.11;1734373;80;21503;-42
2021/07/01 11:11:41;;;;;;;4.67;4.07;;;;;;;27.69;72.98;99830.46;1728592;80;20980;-44
2021/07/01 11:14:10;;;;;;;4.08;3.25;;;;;;;27.69;72.55;99829.09;1727163;81;21668;-43
2021/07/01 11:16:44;;;;;;;5.10;3.15;;;;;;;27.70;75.30;99828.05;1728696;80;20975;-42
2021/07/01 11:19:17;;;;;;;4.90;3.42;;;;;;;27.69;74.98;99829.93;1733776;80;21011;-44
2021/07/01 11:21:51;;;;;;;6.58;3.72;;;;;;;27.69;73.43;99839.52;1726911;82;21263;-41
2021/07/01 11:24:22;;;;;;;4.90;3.62;;;;;;;27.68;73.69;99831.53;1728571;80;20920;-41
2021/07/01 11:26:51;;;;;;;5.42;2.85;;;;;;;27.68;75.47;99831.53;1725338;82;21491;-41
2021/07/01 11:29:19;;;;;;;5.95;3.85;;;;;;;27.68;77.18;99840.58;1738822;80;21491;-41
2021/07/01 11:31:48;;;;;;;5.10;3.70;;;;;;;27.70;78.71;99837.10;1740768;80;21080;-42
2021/07/01 11:34:17;;;;;;;6.53;3.60;;;;;;;27.71;80.46;99838.77;1734586;80;21003;-44
2021/07/01 11:36:51;;;;;;;3.83;2.98;;;;;;;27.73;77.83;99838.56;1731336;80;20991;-43
2021/07/01 11:39:24;;;;;;;7.75;3.42;;;;;;;27.73;74.07;99833.92;1732309;80;21810;-45
2021/07/01 11:41:51;;;;;;;5.58;3.62;;;;;;;27.76;76.69;99834.85;1732008;80;21441;-44
2021/07/01 11:44:21;;;;;;;7.10;3.60;;;;;;;27.81;78.35;99834.20;1729994;80;20932;-43